sensor_id;sensor_type;location;lat;lon;timestamp;temperature;humidity
32366;DHT22;18837;46.832;16.838;2023-07-02T00:00:04;22.50;85.80
32366;DHT22;18837;46.832;16.838;2023-07-02T00:02:38;22.40;85.80
32366;DHT22;18837;46.832;16.838;2023-07-02T00:05:28;22.40;85.70
32366;DHT22;18837;46.832;16.838;2023-07-02T00:08:05;22.40;85.80
32366;DHT22;18837;46.832;16.838;2023-07-02T00:10:31;22.40;85.80
32366;DHT22;18837;46.832;16.838;2023-07-02T00:12:57;22.40;85.60
32366;DHT22;18837;46.832;16.838;2023-07-02T00:15:22;22.40;85.60
32366;DHT22;18837;46.832;16.838;2023-07-02T00:17:48;22.40;85.60
32366;DHT22;18837;46.832;16.838;2023-07-02T00:20:14;22.40;85.50
32366;DHT22;18837;46.832;16.838;2023-07-02T00:22:53;22.40;86.30
32366;DHT22;18837;46.832;16.838;2023-07-02T00:25:20;22.40;85.60
32366;DHT22;18837;46.832;16.838;2023-07-02T00:27:45;22.40;85.60
32366;DHT22;18837;46.832;16.838;2023-07-02T00:30:12;22.40;85.90
32366;DHT22;18837;46.832;16.838;2023-07-02T00:32:37;22.40;85.80
32366;DHT22;18837;46.832;16.838;2023-07-02T00:35:03;22.40;85.60
32366;DHT22;18837;46.832;16.838;2023-07-02T00:37:53;22.40;85.70
32366;DHT22;18837;46.832;16.838;2023-07-02T00:40:38;22.30;85.80
32366;DHT22;18837;46.832;16.838;2023-07-02T00:43:04;22.30;85.70
32366;DHT22;18837;46.832;16.838;2023-07-02T00:45:30;22.30;85.80
32366;DHT22;18837;46.832;16.838;2023-07-02T00:47:56;22.30;85.80
32366;DHT22;18837;46.832;16.838;2023-07-02T00:50:23;22.30;85.60
32366;DHT22;18837;46.832;16.838;2023-07-02T00:52:49;22.30;85.90
32366;DHT22;18837;46.832;16.838;2023-07-02T00:55:14;22.30;85.70
32366;DHT22;18837;46.832;16.838;2023-07-02T00:58:06;22.30;85.70
32366;DHT22;18837;46.832;16.838;2023-07-02T01:00:33;22.30;85.80
32366;DHT22;18837;46.832;16.838;2023-07-02T01:02:59;22.30;85.80
32366;DHT22;18837;46.832;16.838;2023-07-02T01:05:28;22.30;86.00
32366;DHT22;18837;46.832;16.838;2023-07-02T01:08:09;22.30;85.90
32366;DHT22;18837;46.832;16.838;2023-07-02T01:10:37;22.20;85.80
32366;DHT22;18837;46.832;16.838;2023-07-02T01:13:27;22.30;85.90
32366;DHT22;18837;46.832;16.838;2023-07-02T01:16:08;22.20;86.00
32366;DHT22;18837;46.832;16.838;2023-07-02T01:18:34;22.20;85.90
32366;DHT22;18837;46.832;16.838;2023-07-02T01:21:04;22.20;86.10
32366;DHT22;18837;46.832;16.838;2023-07-02T01:23:33;22.10;85.90
32366;DHT22;18837;46.832;16.838;2023-07-02T01:25:59;22.10;86.20
32366;DHT22;18837;46.832;16.838;2023-07-02T01:28:35;22.20;86.20
32366;DHT22;18837;46.832;16.838;2023-07-02T01:31:17;22.10;86.00
32366;DHT22;18837;46.832;16.838;2023-07-02T01:33:42;22.20;86.10
32366;DHT22;18837;46.832;16.838;2023-07-02T01:36:08;22.10;86.10
32366;DHT22;18837;46.832;16.838;2023-07-02T01:38:34;22.10;86.00
32366;DHT22;18837;46.832;16.838;2023-07-02T01:41:00;22.20;86.00
32366;DHT22;18837;46.832;16.838;2023-07-02T01:43:25;22.10;86.00
32366;DHT22;18837;46.832;16.838;2023-07-02T01:46:16;22.10;86.10
32366;DHT22;18837;46.832;16.838;2023-07-02T01:49:04;22.10;86.10
32366;DHT22;18837;46.832;16.838;2023-07-02T01:51:35;22.10;86.20
32366;DHT22;18837;46.832;16.838;2023-07-02T01:54:01;22.10;86.20
32366;DHT22;18837;46.832;16.838;2023-07-02T01:56:27;22.10;86.10
32366;DHT22;18837;46.832;16.838;2023-07-02T01:58:53;22.00;86.00
32366;DHT22;18837;46.832;16.838;2023-07-02T02:01:19;22.00;86.20
32366;DHT22;18837;46.832;16.838;2023-07-02T02:03:45;22.10;86.20
32366;DHT22;18837;46.832;16.838;2023-07-02T02:06:16;22.10;86.30
32366;DHT22;18837;46.832;16.838;2023-07-02T02:08:42;22.00;85.90
32366;DHT22;18837;46.832;16.838;2023-07-02T02:11:08;22.10;86.40
32366;DHT22;18837;46.832;16.838;2023-07-02T02:13:33;22.10;86.20
32366;DHT22;18837;46.832;16.838;2023-07-02T02:15:59;22.10;86.40
32366;DHT22;18837;46.832;16.838;2023-07-02T02:18:25;22.00;86.20
32366;DHT22;18837;46.832;16.838;2023-07-02T02:21:12;22.00;86.10
32366;DHT22;18837;46.832;16.838;2023-07-02T02:23:58;22.00;86.40
32366;DHT22;18837;46.832;16.838;2023-07-02T02:26:36;22.00;86.50
32366;DHT22;18837;46.832;16.838;2023-07-02T02:29:02;22.00;86.20
32366;DHT22;18837;46.832;16.838;2023-07-02T02:31:28;21.90;86.20
32366;DHT22;18837;46.832;16.838;2023-07-02T02:33:54;22.00;86.80
32366;DHT22;18837;46.832;16.838;2023-07-02T02:36:20;22.00;86.30
32366;DHT22;18837;46.832;16.838;2023-07-02T02:38:46;22.00;86.40
32366;DHT22;18837;46.832;16.838;2023-07-02T02:41:17;21.90;86.50
32366;DHT22;18837;46.832;16.838;2023-07-02T02:43:43;22.00;86.50
32366;DHT22;18837;46.832;16.838;2023-07-02T02:46:10;22.00;87.20
32366;DHT22;18837;46.832;16.838;2023-07-02T02:48:36;22.00;86.60
32366;DHT22;18837;46.832;16.838;2023-07-02T02:51:03;21.90;86.50
32366;DHT22;18837;46.832;16.838;2023-07-02T02:53:29;21.90;86.60
32366;DHT22;18837;46.832;16.838;2023-07-02T02:56:30;21.90;86.60
32366;DHT22;18837;46.832;16.838;2023-07-02T02:59:14;21.90;86.50
32366;DHT22;18837;46.832;16.838;2023-07-02T03:01:39;21.90;86.70
32366;DHT22;18837;46.832;16.838;2023-07-02T03:04:05;21.90;86.80
32366;DHT22;18837;46.832;16.838;2023-07-02T03:06:34;21.90;86.70
32366;DHT22;18837;46.832;16.838;2023-07-02T03:08:59;21.80;86.60
32366;DHT22;18837;46.832;16.838;2023-07-02T03:11:25;21.90;86.80
32366;DHT22;18837;46.832;16.838;2023-07-02T03:14:09;21.80;86.70
32366;DHT22;18837;46.832;16.838;2023-07-02T03:16:34;21.90;86.70
32366;DHT22;18837;46.832;16.838;2023-07-02T03:19:00;21.80;86.70
32366;DHT22;18837;46.832;16.838;2023-07-02T03:21:26;21.80;86.80
32366;DHT22;18837;46.832;16.838;2023-07-02T03:23:51;21.80;86.80
32366;DHT22;18837;46.832;16.838;2023-07-02T03:26:17;21.80;87.00
32366;DHT22;18837;46.832;16.838;2023-07-02T03:28:57;21.80;87.00
32366;DHT22;18837;46.832;16.838;2023-07-02T03:31:41;21.80;86.90
32366;DHT22;18837;46.832;16.838;2023-07-02T03:34:26;21.80;87.00
32366;DHT22;18837;46.832;16.838;2023-07-02T03:36:51;21.80;86.90
32366;DHT22;18837;46.832;16.838;2023-07-02T03:39:17;21.80;87.00
32366;DHT22;18837;46.832;16.838;2023-07-02T03:41:44;21.80;87.00
32366;DHT22;18837;46.832;16.838;2023-07-02T03:44:10;21.80;86.80
32366;DHT22;18837;46.832;16.838;2023-07-02T03:46:36;21.70;86.90
32366;DHT22;18837;46.832;16.838;2023-07-02T03:49:06;21.80;87.00
32366;DHT22;18837;46.832;16.838;2023-07-02T03:51:32;21.80;87.10
32366;DHT22;18837;46.832;16.838;2023-07-02T03:53:58;21.80;87.00
32366;DHT22;18837;46.832;16.838;2023-07-02T03:56:24;21.80;87.20
32366;DHT22;18837;46.832;16.838;2023-07-02T03:58:52;21.70;87.30
32366;DHT22;18837;46.832;16.838;2023-07-02T04:01:18;21.70;87.20
32366;DHT22;18837;46.832;16.838;2023-07-02T04:04:07;21.80;87.30
32366;DHT22;18837;46.832;16.838;2023-07-02T04:06:57;21.70;87.30
32366;DHT22;18837;46.832;16.838;2023-07-02T04:09:31;21.70;87.30
32366;DHT22;18837;46.832;16.838;2023-07-02T04:11:59;21.70;87.10
32366;DHT22;18837;46.832;16.838;2023-07-02T04:14:25;21.70;87.10
32366;DHT22;18837;46.832;16.838;2023-07-02T04:16:50;21.70;87.40
32366;DHT22;18837;46.832;16.838;2023-07-02T04:19:16;21.70;87.30
32366;DHT22;18837;46.832;16.838;2023-07-02T04:21:42;21.70;87.10
32366;DHT22;18837;46.832;16.838;2023-07-02T04:24:13;21.70;87.10
32366;DHT22;18837;46.832;16.838;2023-07-02T04:26:38;21.70;87.30
32366;DHT22;18837;46.832;16.838;2023-07-02T04:29:10;21.70;87.40
32366;DHT22;18837;46.832;16.838;2023-07-02T04:31:36;21.70;87.30
32366;DHT22;18837;46.832;16.838;2023-07-02T04:34:03;21.70;87.30
32366;DHT22;18837;46.832;16.838;2023-07-02T04:36:28;21.70;87.30
32366;DHT22;18837;46.832;16.838;2023-07-02T04:39:00;21.70;87.10
32366;DHT22;18837;46.832;16.838;2023-07-02T04:41:46;21.70;87.10
32366;DHT22;18837;46.832;16.838;2023-07-02T04:44:20;21.70;87.50
32366;DHT22;18837;46.832;16.838;2023-07-02T04:46:48;21.70;87.30
32366;DHT22;18837;46.832;16.838;2023-07-02T04:49:14;21.70;87.30
32366;DHT22;18837;46.832;16.838;2023-07-02T04:51:40;21.70;87.50
32366;DHT22;18837;46.832;16.838;2023-07-02T04:54:06;21.70;87.40
32366;DHT22;18837;46.832;16.838;2023-07-02T04:56:31;21.70;87.50
32366;DHT22;18837;46.832;16.838;2023-07-02T04:59:16;21.70;87.50
32366;DHT22;18837;46.832;16.838;2023-07-02T05:01:42;21.60;87.50
32366;DHT22;18837;46.832;16.838;2023-07-02T05:04:10;21.60;87.60
32366;DHT22;18837;46.832;16.838;2023-07-02T05:06:37;21.70;87.60
32366;DHT22;18837;46.832;16.838;2023-07-02T05:09:02;21.70;87.50
32366;DHT22;18837;46.832;16.838;2023-07-02T05:11:28;21.60;87.50
32366;DHT22;18837;46.832;16.838;2023-07-02T05:13:59;21.70;87.40
32366;DHT22;18837;46.832;16.838;2023-07-02T05:16:27;21.70;87.20
32366;DHT22;18837;46.832;16.838;2023-07-02T05:18:54;21.70;87.30
32366;DHT22;18837;46.832;16.838;2023-07-02T05:21:20;21.70;87.30
32366;DHT22;18837;46.832;16.838;2023-07-02T05:23:47;21.70;87.20
32366;DHT22;18837;46.832;16.838;2023-07-02T05:26:12;21.70;87.20
32366;DHT22;18837;46.832;16.838;2023-07-02T05:28:38;21.80;87.10
32366;DHT22;18837;46.832;16.838;2023-07-02T05:31:04;21.70;87.10
32366;DHT22;18837;46.832;16.838;2023-07-02T05:33:30;21.70;86.90
32366;DHT22;18837;46.832;16.838;2023-07-02T05:35:57;21.70;87.00
32366;DHT22;18837;46.832;16.838;2023-07-02T05:38:23;21.70;87.10
32366;DHT22;18837;46.832;16.838;2023-07-02T05:40:50;21.70;87.10
32366;DHT22;18837;46.832;16.838;2023-07-02T05:43:16;21.70;87.30
32366;DHT22;18837;46.832;16.838;2023-07-02T05:45:42;21.70;87.20
32366;DHT22;18837;46.832;16.838;2023-07-02T05:48:07;21.70;87.20
32366;DHT22;18837;46.832;16.838;2023-07-02T05:50:33;21.80;87.20
32366;DHT22;18837;46.832;16.838;2023-07-02T05:52:59;21.70;87.00
32366;DHT22;18837;46.832;16.838;2023-07-02T05:55:25;21.70;87.10
32366;DHT22;18837;46.832;16.838;2023-07-02T05:57:50;21.70;87.00
32366;DHT22;18837;46.832;16.838;2023-07-02T06:00:16;21.70;87.30
32366;DHT22;18837;46.832;16.838;2023-07-02T06:02:46;21.70;87.30
32366;DHT22;18837;46.832;16.838;2023-07-02T06:05:12;21.70;87.40
32366;DHT22;18837;46.832;16.838;2023-07-02T06:07:37;21.70;87.20
32366;DHT22;18837;46.832;16.838;2023-07-02T06:10:03;21.70;87.10
32366;DHT22;18837;46.832;16.838;2023-07-02T06:12:29;21.70;87.20
32366;DHT22;18837;46.832;16.838;2023-07-02T06:14:55;21.70;87.10
32366;DHT22;18837;46.832;16.838;2023-07-02T06:17:21;21.70;87.20
32366;DHT22;18837;46.832;16.838;2023-07-02T06:19:48;21.70;87.30
32366;DHT22;18837;46.832;16.838;2023-07-02T06:22:19;21.70;87.30
32366;DHT22;18837;46.832;16.838;2023-07-02T06:24:45;21.70;87.30
32366;DHT22;18837;46.832;16.838;2023-07-02T06:27:11;21.70;87.20
32366;DHT22;18837;46.832;16.838;2023-07-02T06:29:36;21.70;87.10
32366;DHT22;18837;46.832;16.838;2023-07-02T06:32:05;21.70;87.20
32366;DHT22;18837;46.832;16.838;2023-07-02T06:34:31;21.70;87.20
32366;DHT22;18837;46.832;16.838;2023-07-02T06:37:02;21.70;87.20
32366;DHT22;18837;46.832;16.838;2023-07-02T06:39:28;21.70;87.20
32366;DHT22;18837;46.832;16.838;2023-07-02T06:41:54;21.60;87.10
32366;DHT22;18837;46.832;16.838;2023-07-02T06:44:19;21.60;87.00
32366;DHT22;18837;46.832;16.838;2023-07-02T06:46:48;21.70;87.00
32366;DHT22;18837;46.832;16.838;2023-07-02T06:49:13;21.60;87.00
32366;DHT22;18837;46.832;16.838;2023-07-02T06:51:58;21.70;87.10
32366;DHT22;18837;46.832;16.838;2023-07-02T06:54:44;21.70;87.30
32366;DHT22;18837;46.832;16.838;2023-07-02T06:57:15;21.70;87.40
32366;DHT22;18837;46.832;16.838;2023-07-02T06:59:41;21.70;87.20
32366;DHT22;18837;46.832;16.838;2023-07-02T07:02:07;21.70;87.10
32366;DHT22;18837;46.832;16.838;2023-07-02T07:04:33;21.80;87.10
32366;DHT22;18837;46.832;16.838;2023-07-02T07:07:00;21.80;87.10
32366;DHT22;18837;46.832;16.838;2023-07-02T07:09:28;21.80;86.70
32366;DHT22;18837;46.832;16.838;2023-07-02T07:11:59;21.80;86.70
32366;DHT22;18837;46.832;16.838;2023-07-02T07:14:25;21.90;86.50
32366;DHT22;18837;46.832;16.838;2023-07-02T07:16:50;21.90;86.40
32366;DHT22;18837;46.832;16.838;2023-07-02T07:19:17;22.00;87.10
32366;DHT22;18837;46.832;16.838;2023-07-02T07:21:42;22.00;86.90
32366;DHT22;18837;46.832;16.838;2023-07-02T07:24:09;22.00;86.40
32366;DHT22;18837;46.832;16.838;2023-07-02T07:26:40;22.10;86.50
32366;DHT22;18837;46.832;16.838;2023-07-02T07:29:07;22.10;86.90
32366;DHT22;18837;46.832;16.838;2023-07-02T07:31:33;22.10;87.30
32366;DHT22;18837;46.832;16.838;2023-07-02T07:33:59;22.20;87.70
32366;DHT22;18837;46.832;16.838;2023-07-02T07:36:24;22.20;87.40
32366;DHT22;18837;46.832;16.838;2023-07-02T07:38:50;22.30;87.80
32366;DHT22;18837;46.832;16.838;2023-07-02T07:41:16;22.30;87.70
32366;DHT22;18837;46.832;16.838;2023-07-02T07:43:42;22.30;87.80
32366;DHT22;18837;46.832;16.838;2023-07-02T07:46:07;22.40;87.70
32366;DHT22;18837;46.832;16.838;2023-07-02T07:51:09;22.40;87.90
32366;DHT22;18837;46.832;16.838;2023-07-02T07:53:37;22.40;88.00
32366;DHT22;18837;46.832;16.838;2023-07-02T07:56:04;22.50;87.80
32366;DHT22;18837;46.832;16.838;2023-07-02T07:58:29;22.50;87.20
32366;DHT22;18837;46.832;16.838;2023-07-02T08:00:57;22.60;87.50
32366;DHT22;18837;46.832;16.838;2023-07-02T08:03:23;22.70;88.70
32366;DHT22;18837;46.832;16.838;2023-07-02T08:05:49;22.80;88.00
32366;DHT22;18837;46.832;16.838;2023-07-02T08:08:14;22.80;87.00
32366;DHT22;18837;46.832;16.838;2023-07-02T08:10:40;22.90;85.80
32366;DHT22;18837;46.832;16.838;2023-07-02T08:13:08;22.90;85.10
32366;DHT22;18837;46.832;16.838;2023-07-02T08:15:33;23.00;84.90
32366;DHT22;18837;46.832;16.838;2023-07-02T08:17:59;23.00;85.60
32366;DHT22;18837;46.832;16.838;2023-07-02T08:20:25;23.10;85.80
32366;DHT22;18837;46.832;16.838;2023-07-02T08:22:51;23.10;86.10
32366;DHT22;18837;46.832;16.838;2023-07-02T08:25:18;23.10;86.80
32366;DHT22;18837;46.832;16.838;2023-07-02T08:27:44;23.10;86.60
32366;DHT22;18837;46.832;16.838;2023-07-02T08:30:10;23.10;86.40
32366;DHT22;18837;46.832;16.838;2023-07-02T08:32:36;23.10;86.10
32366;DHT22;18837;46.832;16.838;2023-07-02T08:35:01;23.10;86.20
32366;DHT22;18837;46.832;16.838;2023-07-02T08:37:27;23.10;85.80
32366;DHT22;18837;46.832;16.838;2023-07-02T08:39:53;23.20;85.50
32366;DHT22;18837;46.832;16.838;2023-07-02T08:42:19;23.20;85.30
32366;DHT22;18837;46.832;16.838;2023-07-02T08:44:53;23.20;85.30
32366;DHT22;18837;46.832;16.838;2023-07-02T08:47:19;23.30;85.60
32366;DHT22;18837;46.832;16.838;2023-07-02T08:49:45;23.30;84.40
32366;DHT22;18837;46.832;16.838;2023-07-02T08:52:13;23.30;85.20
32366;DHT22;18837;46.832;16.838;2023-07-02T08:57:16;23.40;85.20
32366;DHT22;18837;46.832;16.838;2023-07-02T08:59:48;23.40;84.90
32366;DHT22;18837;46.832;16.838;2023-07-02T09:05:27;23.60;83.80
32366;DHT22;18837;46.832;16.838;2023-07-02T09:07:59;23.60;84.50
32366;DHT22;18837;46.832;16.838;2023-07-02T09:10:31;23.70;84.70
32366;DHT22;18837;46.832;16.838;2023-07-02T09:13:09;23.70;85.00
32366;DHT22;18837;46.832;16.838;2023-07-02T09:15:50;23.70;84.70
32366;DHT22;18837;46.832;16.838;2023-07-02T09:18:35;23.80;83.30
32366;DHT22;18837;46.832;16.838;2023-07-02T09:21:14;23.80;84.10
32366;DHT22;18837;46.832;16.838;2023-07-02T09:26:25;24.00;89.40
32366;DHT22;18837;46.832;16.838;2023-07-02T09:29:00;24.00;85.10
32366;DHT22;18837;46.832;16.838;2023-07-02T09:31:27;24.10;82.50
32366;DHT22;18837;46.832;16.838;2023-07-02T09:37:11;24.20;82.50
32366;DHT22;18837;46.832;16.838;2023-07-02T09:39:40;24.20;85.20
32366;DHT22;18837;46.832;16.838;2023-07-02T09:45:28;24.30;83.50
32366;DHT22;18837;46.832;16.838;2023-07-02T09:47:55;24.30;82.30
32366;DHT22;18837;46.832;16.838;2023-07-02T09:53:05;24.40;84.40
32366;DHT22;18837;46.832;16.838;2023-07-02T09:55:56;24.50;91.10
32366;DHT22;18837;46.832;16.838;2023-07-02T09:58:25;24.60;88.50
32366;DHT22;18837;46.832;16.838;2023-07-02T10:00:53;24.60;83.50
32366;DHT22;18837;46.832;16.838;2023-07-02T10:03:31;24.60;81.90
32366;DHT22;18837;46.832;16.838;2023-07-02T10:11:44;24.60;81.30
32366;DHT22;18837;46.832;16.838;2023-07-02T10:14:11;24.60;82.70
32366;DHT22;18837;46.832;16.838;2023-07-02T10:19:17;24.70;82.70
32366;DHT22;18837;46.832;16.838;2023-07-02T10:21:44;24.70;81.80
32366;DHT22;18837;46.832;16.838;2023-07-02T10:24:17;24.70;80.10
32366;DHT22;18837;46.832;16.838;2023-07-02T10:29:19;24.90;88.80
32366;DHT22;18837;46.832;16.838;2023-07-02T10:31:50;25.00;90.90
32366;DHT22;18837;46.832;16.838;2023-07-02T10:39:18;25.20;83.30
32366;DHT22;18837;46.832;16.838;2023-07-02T10:41:43;25.20;81.10
32366;DHT22;18837;46.832;16.838;2023-07-02T10:44:21;25.20;81.60
32366;DHT22;18837;46.832;16.838;2023-07-02T10:49:20;25.30;83.70
32366;DHT22;18837;46.832;16.838;2023-07-02T10:54:17;25.40;81.40
32366;DHT22;18837;46.832;16.838;2023-07-02T10:56:47;25.40;79.00
32366;DHT22;18837;46.832;16.838;2023-07-02T10:59:23;25.50;78.70
32366;DHT22;18837;46.832;16.838;2023-07-02T11:01:50;25.50;77.50
32366;DHT22;18837;46.832;16.838;2023-07-02T11:04:16;25.60;79.30
32366;DHT22;18837;46.832;16.838;2023-07-02T11:06:42;25.60;81.30
32366;DHT22;18837;46.832;16.838;2023-07-02T11:09:17;25.60;81.50
32366;DHT22;18837;46.832;16.838;2023-07-02T11:11:57;25.70;81.90
32366;DHT22;18837;46.832;16.838;2023-07-02T11:14:34;25.80;85.00
32366;DHT22;18837;46.832;16.838;2023-07-02T11:17:25;25.80;84.10
32366;DHT22;18837;46.832;16.838;2023-07-02T11:19:53;25.90;88.30
32366;DHT22;18837;46.832;16.838;2023-07-02T11:22:34;25.90;82.30
32366;DHT22;18837;46.832;16.838;2023-07-02T11:25:33;25.90;83.50
32366;DHT22;18837;46.832;16.838;2023-07-02T11:28:03;26.00;87.70
32366;DHT22;18837;46.832;16.838;2023-07-02T11:38:16;26.20;85.90
32366;DHT22;18837;46.832;16.838;2023-07-02T11:40:54;26.20;85.50
32366;DHT22;18837;46.832;16.838;2023-07-02T11:43:20;26.20;83.80
32366;DHT22;18837;46.832;16.838;2023-07-02T11:45:46;26.20;80.50
32366;DHT22;18837;46.832;16.838;2023-07-02T11:53:39;26.10;81.80
32366;DHT22;18837;46.832;16.838;2023-07-02T11:56:05;26.10;83.40
32366;DHT22;18837;46.832;16.838;2023-07-02T12:01:06;26.00;79.70
32366;DHT22;18837;46.832;16.838;2023-07-02T12:03:32;26.00;80.20
32366;DHT22;18837;46.832;16.838;2023-07-02T12:13:44;25.80;75.80
32366;DHT22;18837;46.832;16.838;2023-07-02T12:16:10;25.70;77.10
32366;DHT22;18837;46.832;16.838;2023-07-02T12:18:35;25.70;77.50
32366;DHT22;18837;46.832;16.838;2023-07-02T12:21:02;25.60;77.00
32366;DHT22;18837;46.832;16.838;2023-07-02T12:23:28;25.60;77.60
32366;DHT22;18837;46.832;16.838;2023-07-02T12:26:19;25.60;76.00
32366;DHT22;18837;46.832;16.838;2023-07-02T12:28:45;25.50;78.10
32366;DHT22;18837;46.832;16.838;2023-07-02T12:31:11;25.50;77.00
32366;DHT22;18837;46.832;16.838;2023-07-02T12:33:38;25.50;77.10
32366;DHT22;18837;46.832;16.838;2023-07-02T12:36:04;25.50;77.20
32366;DHT22;18837;46.832;16.838;2023-07-02T12:38:30;25.50;75.80
32366;DHT22;18837;46.832;16.838;2023-07-02T12:41:05;25.50;77.20
32366;DHT22;18837;46.832;16.838;2023-07-02T12:43:49;25.50;78.90
32366;DHT22;18837;46.832;16.838;2023-07-02T12:46:27;25.60;78.30
32366;DHT22;18837;46.832;16.838;2023-07-02T12:51:29;25.70;77.80
32366;DHT22;18837;46.832;16.838;2023-07-02T12:56:32;25.80;80.90
32366;DHT22;18837;46.832;16.838;2023-07-02T12:58:58;25.90;83.50
32366;DHT22;18837;46.832;16.838;2023-07-02T13:01:29;25.90;80.80
32366;DHT22;18837;46.832;16.838;2023-07-02T13:03:55;26.00;81.80
32366;DHT22;18837;46.832;16.838;2023-07-02T13:06:21;26.00;81.60
32366;DHT22;18837;46.832;16.838;2023-07-02T13:08:47;26.10;79.40
32366;DHT22;18837;46.832;16.838;2023-07-02T13:24:06;26.50;79.20
32366;DHT22;18837;46.832;16.838;2023-07-02T13:26:31;26.60;76.90
32366;DHT22;18837;46.832;16.838;2023-07-02T13:28:57;26.60;75.70
32366;DHT22;18837;46.832;16.838;2023-07-02T13:31:23;26.70;76.40
32366;DHT22;18837;46.832;16.838;2023-07-02T13:34:10;26.70;77.00
32366;DHT22;18837;46.832;16.838;2023-07-02T13:39:19;26.80;76.40
32366;DHT22;18837;46.832;16.838;2023-07-02T13:57:13;26.90;78.70
32366;DHT22;18837;46.832;16.838;2023-07-02T13:59:39;26.90;77.30
32366;DHT22;18837;46.832;16.838;2023-07-02T14:02:05;26.90;75.60
32366;DHT22;18837;46.832;16.838;2023-07-02T14:04:31;27.00;77.70
32366;DHT22;18837;46.832;16.838;2023-07-02T14:06:57;27.00;75.20
32366;DHT22;18837;46.832;16.838;2023-07-02T14:09:35;27.10;74.30
32366;DHT22;18837;46.832;16.838;2023-07-02T14:12:03;27.10;75.00
32366;DHT22;18837;46.832;16.838;2023-07-02T14:14:29;27.20;75.60
32366;DHT22;18837;46.832;16.838;2023-07-02T14:16:54;27.20;74.80
32366;DHT22;18837;46.832;16.838;2023-07-02T14:19:20;27.20;75.20
32366;DHT22;18837;46.832;16.838;2023-07-02T14:21:46;27.30;75.40
32366;DHT22;18837;46.832;16.838;2023-07-02T14:24:12;27.30;74.80
32366;DHT22;18837;46.832;16.838;2023-07-02T14:30:05;27.30;77.10
32366;DHT22;18837;46.832;16.838;2023-07-02T14:32:34;27.20;74.40
32366;DHT22;18837;46.832;16.838;2023-07-02T14:35:03;27.20;74.80
32366;DHT22;18837;46.832;16.838;2023-07-02T14:37:29;27.20;75.20
32366;DHT22;18837;46.832;16.838;2023-07-02T14:39:55;27.10;77.60
32366;DHT22;18837;46.832;16.838;2023-07-02T14:42:20;27.00;77.70
32366;DHT22;18837;46.832;16.838;2023-07-02T14:44:55;27.00;76.40
32366;DHT22;18837;46.832;16.838;2023-07-02T14:47:21;27.00;77.50
32366;DHT22;18837;46.832;16.838;2023-07-02T14:49:47;26.90;78.40
32366;DHT22;18837;46.832;16.838;2023-07-02T14:52:13;26.90;78.00
32366;DHT22;18837;46.832;16.838;2023-07-02T14:54:39;26.80;78.10
32366;DHT22;18837;46.832;16.838;2023-07-02T14:57:04;26.80;78.50
32366;DHT22;18837;46.832;16.838;2023-07-02T14:59:58;26.80;78.70
32366;DHT22;18837;46.832;16.838;2023-07-02T15:02:48;26.70;78.90
32366;DHT22;18837;46.832;16.838;2023-07-02T15:05:23;26.70;78.70
32366;DHT22;18837;46.832;16.838;2023-07-02T15:07:48;26.70;78.80
32366;DHT22;18837;46.832;16.838;2023-07-02T15:10:14;26.70;78.70
32366;DHT22;18837;46.832;16.838;2023-07-02T15:12:40;26.70;77.60
32366;DHT22;18837;46.832;16.838;2023-07-02T15:15:06;26.70;77.50
32366;DHT22;18837;46.832;16.838;2023-07-02T15:17:31;26.70;78.50
32366;DHT22;18837;46.832;16.838;2023-07-02T15:20:10;26.80;78.60
32366;DHT22;18837;46.832;16.838;2023-07-02T15:22:36;26.80;78.10
32366;DHT22;18837;46.832;16.838;2023-07-02T15:25:02;26.80;77.90
32366;DHT22;18837;46.832;16.838;2023-07-02T15:27:28;26.80;77.90
32366;DHT22;18837;46.832;16.838;2023-07-02T15:29:53;26.80;78.10
32366;DHT22;18837;46.832;16.838;2023-07-02T15:32:19;26.80;78.20
32366;DHT22;18837;46.832;16.838;2023-07-02T15:38:18;26.70;77.10
32366;DHT22;18837;46.832;16.838;2023-07-02T15:40:46;26.70;77.50
32366;DHT22;18837;46.832;16.838;2023-07-02T15:43:12;26.70;77.20
32366;DHT22;18837;46.832;16.838;2023-07-02T15:45:38;26.70;77.00
32366;DHT22;18837;46.832;16.838;2023-07-02T15:48:04;26.70;77.10
32366;DHT22;18837;46.832;16.838;2023-07-02T15:50:30;26.60;77.60
32366;DHT22;18837;46.832;16.838;2023-07-02T15:53:19;26.70;77.60
32366;DHT22;18837;46.832;16.838;2023-07-02T15:55:46;26.70;77.90
32366;DHT22;18837;46.832;16.838;2023-07-02T15:58:12;26.70;78.50
32366;DHT22;18837;46.832;16.838;2023-07-02T16:00:41;26.70;77.30
32366;DHT22;18837;46.832;16.838;2023-07-02T16:03:07;26.80;76.80
32366;DHT22;18837;46.832;16.838;2023-07-02T16:05:36;26.80;76.20
32366;DHT22;18837;46.832;16.838;2023-07-02T16:14:39;27.00;77.20
32366;DHT22;18837;46.832;16.838;2023-07-02T16:17:05;27.00;77.10
32366;DHT22;18837;46.832;16.838;2023-07-02T16:19:31;27.00;77.50
32366;DHT22;18837;46.832;16.838;2023-07-02T16:21:57;27.00;76.80
32366;DHT22;18837;46.832;16.838;2023-07-02T16:24:28;27.00;76.20
32366;DHT22;18837;46.832;16.838;2023-07-02T16:26:54;27.00;76.10
32366;DHT22;18837;46.832;16.838;2023-07-02T16:29:43;27.00;76.40
32366;DHT22;18837;46.832;16.838;2023-07-02T16:32:16;27.00;76.40
32366;DHT22;18837;46.832;16.838;2023-07-02T16:34:44;27.00;76.20
32366;DHT22;18837;46.832;16.838;2023-07-02T16:37:09;26.90;75.70
32366;DHT22;18837;46.832;16.838;2023-07-02T16:39:54;26.90;75.00
32366;DHT22;18837;46.832;16.838;2023-07-02T16:50:08;26.70;75.20
32366;DHT22;18837;46.832;16.838;2023-07-02T16:52:34;26.70;75.50
32366;DHT22;18837;46.832;16.838;2023-07-02T16:55:06;26.60;75.30
32366;DHT22;18837;46.832;16.838;2023-07-02T16:57:32;26.60;75.50
32366;DHT22;18837;46.832;16.838;2023-07-02T17:00:17;26.50;75.40
32366;DHT22;18837;46.832;16.838;2023-07-02T17:03:04;26.50;75.20
32366;DHT22;18837;46.832;16.838;2023-07-02T17:08:23;26.50;75.90
32366;DHT22;18837;46.832;16.838;2023-07-02T17:10:49;26.40;75.60
32366;DHT22;18837;46.832;16.838;2023-07-02T17:13:15;26.40;75.30
32366;DHT22;18837;46.832;16.838;2023-07-02T17:15:40;26.40;75.60
32366;DHT22;18837;46.832;16.838;2023-07-02T17:18:18;26.40;75.70
32366;DHT22;18837;46.832;16.838;2023-07-02T17:21:24;26.30;75.80
32366;DHT22;18837;46.832;16.838;2023-07-02T17:23:50;26.30;76.40
32366;DHT22;18837;46.832;16.838;2023-07-02T17:26:15;26.30;76.20
32366;DHT22;18837;46.832;16.838;2023-07-02T17:28:41;26.20;75.80
32366;DHT22;18837;46.832;16.838;2023-07-02T17:31:07;26.20;75.80
32366;DHT22;18837;46.832;16.838;2023-07-02T17:33:32;26.20;76.20